sensor_id;sensor_type;location;lat;lon;timestamp;P1;durP1;ratioP1;P2;durP2;ratioP2
32826;SDS011;51059;42.058;27.986;2024-02-04T00:00:44;13.87;;;10.90;;
32826;SDS011;51059;42.058;27.986;2024-02-04T00:03:10;14.30;;;10.80;;
32826;SDS011;51059;42.058;27.986;2024-02-04T00:05:36;12.40;;;10.00;;
32826;SDS011;51059;42.058;27.986;2024-02-04T00:08:03;11.93;;;9.37;;
32826;SDS011;51059;42.058;27.986;2024-02-04T00:10:29;9.20;;;8.20;;
32826;SDS011;51059;42.058;27.986;2024-02-04T00:12:55;9.33;;;8.10;;
32826;SDS011;51059;42.058;27.986;2024-02-04T00:15:20;13.23;;;8.70;;
32826;SDS011;51059;42.058;27.986;2024-02-04T00:17:46;11.07;;;8.23;;
32826;SDS011;51059;42.058;27.986;2024-02-04T00:20:12;10.47;;;8.30;;
32826;SDS011;51059;42.058;27.986;2024-02-04T00:22:38;10.00;;;8.60;;
32826;SDS011;51059;42.058;27.986;2024-02-04T00:25:04;9.83;;;8.70;;
32826;SDS011;51059;42.058;27.986;2024-02-04T00:27:30;9.50;;;8.20;;
32826;SDS011;51059;42.058;27.986;2024-02-04T00:29:58;9.53;;;8.30;;
32826;SDS011;51059;42.058;27.986;2024-02-04T00:32:24;9.30;;;8.37;;
32826;SDS011;51059;42.058;27.986;2024-02-04T00:34:50;11.83;;;8.80;;
32826;SDS011;51059;42.058;27.986;2024-02-04T00:37:16;11.10;;;8.90;;
32826;SDS011;51059;42.058;27.986;2024-02-04T00:39:42;9.73;;;8.73;;
32826;SDS011;51059;42.058;27.986;2024-02-04T00:42:08;9.77;;;8.77;;
32826;SDS011;51059;42.058;27.986;2024-02-04T00:44:35;11.23;;;9.40;;
32826;SDS011;51059;42.058;27.986;2024-02-04T00:47:03;10.60;;;9.23;;
32826;SDS011;51059;42.058;27.986;2024-02-04T00:49:29;10.70;;;8.70;;
32826;SDS011;51059;42.058;27.986;2024-02-04T00:51:55;11.23;;;9.60;;
32826;SDS011;51059;42.058;27.986;2024-02-04T00:54:21;11.43;;;8.73;;
32826;SDS011;51059;42.058;27.986;2024-02-04T00:56:47;12.27;;;9.37;;
32826;SDS011;51059;42.058;27.986;2024-02-04T00:59:13;10.80;;;9.70;;
32826;SDS011;51059;42.058;27.986;2024-02-04T01:01:39;11.67;;;9.67;;
32826;SDS011;51059;42.058;27.986;2024-02-04T01:04:05;10.13;;;9.10;;
32826;SDS011;51059;42.058;27.986;2024-02-04T01:06:31;10.43;;;9.23;;
32826;SDS011;51059;42.058;27.986;2024-02-04T01:08:57;10.43;;;9.30;;
32826;SDS011;51059;42.058;27.986;2024-02-04T01:11:23;11.10;;;8.97;;
32826;SDS011;51059;42.058;27.986;2024-02-04T01:13:51;10.77;;;9.67;;
32826;SDS011;51059;42.058;27.986;2024-02-04T01:16:17;11.17;;;9.60;;
32826;SDS011;51059;42.058;27.986;2024-02-04T01:18:43;12.57;;;10.17;;
32826;SDS011;51059;42.058;27.986;2024-02-04T01:21:09;12.97;;;10.13;;
32826;SDS011;51059;42.058;27.986;2024-02-04T01:23:35;10.97;;;9.37;;
32826;SDS011;51059;42.058;27.986;2024-02-04T01:26:00;11.07;;;9.97;;
32826;SDS011;51059;42.058;27.986;2024-02-04T01:28:26;12.90;;;10.67;;
32826;SDS011;51059;42.058;27.986;2024-02-04T01:30:51;12.50;;;11.10;;
32826;SDS011;51059;42.058;27.986;2024-02-04T01:33:17;12.30;;;11.00;;
32826;SDS011;51059;42.058;27.986;2024-02-04T01:35:43;14.33;;;10.73;;
32826;SDS011;51059;42.058;27.986;2024-02-04T01:38:09;10.63;;;9.53;;
32826;SDS011;51059;42.058;27.986;2024-02-04T01:40:36;12.43;;;9.73;;
32826;SDS011;51059;42.058;27.986;2024-02-04T01:43:02;10.87;;;9.67;;
32826;SDS011;51059;42.058;27.986;2024-02-04T01:45:28;10.50;;;9.33;;
32826;SDS011;51059;42.058;27.986;2024-02-04T01:47:54;11.37;;;9.37;;
32826;SDS011;51059;42.058;27.986;2024-02-04T01:50:20;10.77;;;9.13;;
32826;SDS011;51059;42.058;27.986;2024-02-04T01:52:47;10.90;;;9.37;;
32826;SDS011;51059;42.058;27.986;2024-02-04T01:55:13;11.40;;;9.20;;
32826;SDS011;51059;42.058;27.986;2024-02-04T01:57:40;10.23;;;9.13;;
32826;SDS011;51059;42.058;27.986;2024-02-04T02:00:07;10.20;;;9.03;;
32826;SDS011;51059;42.058;27.986;2024-02-04T02:02:34;10.97;;;9.70;;
32826;SDS011;51059;42.058;27.986;2024-02-04T02:05:04;12.10;;;8.87;;
32826;SDS011;51059;42.058;27.986;2024-02-04T02:07:31;11.33;;;9.70;;
32826;SDS011;51059;42.058;27.986;2024-02-04T02:09:57;12.03;;;9.73;;
32826;SDS011;51059;42.058;27.986;2024-02-04T02:12:24;11.63;;;10.07;;
32826;SDS011;51059;42.058;27.986;2024-02-04T02:15:10;10.97;;;9.73;;
32826;SDS011;51059;42.058;27.986;2024-02-04T02:20:27;11.33;;;10.13;;
32826;SDS011;51059;42.058;27.986;2024-02-04T02:23:10;11.17;;;9.60;;
32826;SDS011;51059;42.058;27.986;2024-02-04T02:25:39;12.67;;;9.87;;
32826;SDS011;51059;42.058;27.986;2024-02-04T02:28:06;12.20;;;10.13;;
32826;SDS011;51059;42.058;27.986;2024-02-04T02:30:32;12.10;;;9.53;;
32826;SDS011;51059;42.058;27.986;2024-02-04T02:32:58;10.70;;;9.63;;
32826;SDS011;51059;42.058;27.986;2024-02-04T02:35:25;11.33;;;9.07;;
32826;SDS011;51059;42.058;27.986;2024-02-04T02:41:21;9.90;;;8.90;;
32826;SDS011;51059;42.058;27.986;2024-02-04T02:43:27;11.40;;;9.13;;
32826;SDS011;51059;42.058;27.986;2024-02-04T02:45:55;11.07;;;9.93;;
32826;SDS011;51059;42.058;27.986;2024-02-04T02:48:21;11.33;;;9.83;;
32826;SDS011;51059;42.058;27.986;2024-02-04T02:50:47;11.03;;;9.43;;
32826;SDS011;51059;42.058;27.986;2024-02-04T02:53:13;12.33;;;10.13;;
32826;SDS011;51059;42.058;27.986;2024-02-04T02:55:39;11.50;;;10.23;;
32826;SDS011;51059;42.058;27.986;2024-02-04T02:58:07;11.03;;;9.60;;
32826;SDS011;51059;42.058;27.986;2024-02-04T03:00:34;10.83;;;9.70;;
32826;SDS011;51059;42.058;27.986;2024-02-04T03:02:59;11.40;;;10.20;;
32826;SDS011;51059;42.058;27.986;2024-02-04T03:05:25;11.73;;;9.83;;
32826;SDS011;51059;42.058;27.986;2024-02-04T03:07:51;11.77;;;9.80;;
32826;SDS011;51059;42.058;27.986;2024-02-04T03:10:17;10.43;;;9.03;;
32826;SDS011;51059;42.058;27.986;2024-02-04T03:12:44;10.40;;;9.30;;
32826;SDS011;51059;42.058;27.986;2024-02-04T03:15:10;10.17;;;9.17;;
32826;SDS011;51059;42.058;27.986;2024-02-04T03:17:36;11.17;;;9.97;;
32826;SDS011;51059;42.058;27.986;2024-02-04T03:20:03;10.77;;;9.43;;
32826;SDS011;51059;42.058;27.986;2024-02-04T03:22:28;11.27;;;10.17;;
32826;SDS011;51059;42.058;27.986;2024-02-04T03:24:54;12.43;;;10.30;;
32826;SDS011;51059;42.058;27.986;2024-02-04T03:27:20;12.33;;;10.47;;
32826;SDS011;51059;42.058;27.986;2024-02-04T03:29:46;12.93;;;10.07;;
32826;SDS011;51059;42.058;27.986;2024-02-04T03:32:13;10.17;;;9.17;;
32826;SDS011;51059;42.058;27.986;2024-02-04T03:34:42;11.07;;;9.90;;
32826;SDS011;51059;42.058;27.986;2024-02-04T03:37:08;11.53;;;9.67;;
32826;SDS011;51059;42.058;27.986;2024-02-04T03:39:33;10.50;;;9.37;;
32826;SDS011;51059;42.058;27.986;2024-02-04T03:41:59;10.50;;;9.43;;
32826;SDS011;51059;42.058;27.986;2024-02-04T03:44:26;11.03;;;9.80;;
32826;SDS011;51059;42.058;27.986;2024-02-04T03:46:52;11.10;;;9.83;;
32826;SDS011;51059;42.058;27.986;2024-02-04T03:49:18;12.03;;;10.10;;
32826;SDS011;51059;42.058;27.986;2024-02-04T03:51:45;11.07;;;9.83;;
32826;SDS011;51059;42.058;27.986;2024-02-04T03:54:11;10.43;;;9.33;;
32826;SDS011;51059;42.058;27.986;2024-02-04T03:56:37;10.97;;;9.63;;
32826;SDS011;51059;42.058;27.986;2024-02-04T03:59:03;11.67;;;9.60;;
32826;SDS011;51059;42.058;27.986;2024-02-04T04:01:29;12.40;;;9.50;;
32826;SDS011;51059;42.058;27.986;2024-02-04T04:03:55;10.70;;;9.53;;
32826;SDS011;51059;42.058;27.986;2024-02-04T04:06:21;10.30;;;9.10;;
32826;SDS011;51059;42.058;27.986;2024-02-04T04:08:48;10.40;;;9.40;;
32826;SDS011;51059;42.058;27.986;2024-02-04T04:11:14;11.70;;;10.00;;
32826;SDS011;51059;42.058;27.986;2024-02-04T04:13:39;11.83;;;10.63;;
32826;SDS011;51059;42.058;27.986;2024-02-04T04:16:05;13.60;;;11.10;;
32826;SDS011;51059;42.058;27.986;2024-02-04T04:18:32;15.37;;;11.30;;
32826;SDS011;51059;42.058;27.986;2024-02-04T04:20:58;13.23;;;10.33;;
32826;SDS011;51059;42.058;27.986;2024-02-04T04:23:24;11.47;;;10.37;;
32826;SDS011;51059;42.058;27.986;2024-02-04T04:25:50;12.57;;;10.77;;
32826;SDS011;51059;42.058;27.986;2024-02-04T04:28:15;13.00;;;11.10;;
32826;SDS011;51059;42.058;27.986;2024-02-04T04:33:11;11.73;;;10.53;;
32826;SDS011;51059;42.058;27.986;2024-02-04T04:35:38;13.63;;;11.20;;
32826;SDS011;51059;42.058;27.986;2024-02-04T04:38:04;12.83;;;11.10;;
32826;SDS011;51059;42.058;27.986;2024-02-04T04:40:30;11.87;;;10.67;;
32826;SDS011;51059;42.058;27.986;2024-02-04T04:42:57;13.97;;;11.70;;
32826;SDS011;51059;42.058;27.986;2024-02-04T04:45:24;13.00;;;11.10;;
32826;SDS011;51059;42.058;27.986;2024-02-04T04:47:50;14.37;;;11.23;;
32826;SDS011;51059;42.058;27.986;2024-02-04T04:50:15;16.37;;;11.53;;
32826;SDS011;51059;42.058;27.986;2024-02-04T04:52:41;13.20;;;11.77;;
32826;SDS011;51059;42.058;27.986;2024-02-04T04:55:07;14.70;;;11.13;;
32826;SDS011;51059;42.058;27.986;2024-02-04T04:57:33;12.67;;;11.27;;
32826;SDS011;51059;42.058;27.986;2024-02-04T04:59:59;13.10;;;11.77;;
32826;SDS011;51059;42.058;27.986;2024-02-04T05:02:29;12.30;;;10.80;;
32826;SDS011;51059;42.058;27.986;2024-02-04T05:04:55;11.50;;;10.30;;
32826;SDS011;51059;42.058;27.986;2024-02-04T05:07:21;11.17;;;9.73;;
32826;SDS011;51059;42.058;27.986;2024-02-04T05:09:47;11.17;;;9.80;;
32826;SDS011;51059;42.058;27.986;2024-02-04T05:12:13;11.13;;;9.93;;
32826;SDS011;51059;42.058;27.986;2024-02-04T05:14:39;14.20;;;10.13;;
32826;SDS011;51059;42.058;27.986;2024-02-04T05:17:05;15.17;;;10.10;;
32826;SDS011;51059;42.058;27.986;2024-02-04T05:19:31;12.70;;;9.67;;
32826;SDS011;51059;42.058;27.986;2024-02-04T05:21:57;10.93;;;9.03;;
32826;SDS011;51059;42.058;27.986;2024-02-04T05:24:22;11.70;;;9.60;;
32826;SDS011;51059;42.058;27.986;2024-02-04T05:26:48;9.40;;;8.40;;
32826;SDS011;51059;42.058;27.986;2024-02-04T05:29:14;10.10;;;8.60;;
32826;SDS011;51059;42.058;27.986;2024-02-04T05:31:41;10.67;;;9.37;;
32826;SDS011;51059;42.058;27.986;2024-02-04T05:34:08;10.20;;;8.37;;
32826;SDS011;51059;42.058;27.986;2024-02-04T05:36:34;10.07;;;8.80;;
32826;SDS011;51059;42.058;27.986;2024-02-04T05:39:14;11.93;;;8.90;;
32826;SDS011;51059;42.058;27.986;2024-02-04T05:41:41;9.57;;;8.57;;
32826;SDS011;51059;42.058;27.986;2024-02-04T05:44:08;8.87;;;7.97;;
32826;SDS011;51059;42.058;27.986;2024-02-04T05:46:37;9.43;;;8.00;;
32826;SDS011;51059;42.058;27.986;2024-02-04T05:49:04;9.53;;;8.47;;
32826;SDS011;51059;42.058;27.986;2024-02-04T05:51:38;12.33;;;8.37;;
32826;SDS011;51059;42.058;27.986;2024-02-04T05:54:05;9.80;;;8.80;;
32826;SDS011;51059;42.058;27.986;2024-02-04T05:56:32;9.67;;;8.67;;
32826;SDS011;51059;42.058;27.986;2024-02-04T05:58:58;10.83;;;9.07;;
32826;SDS011;51059;42.058;27.986;2024-02-04T06:01:24;12.10;;;9.50;;
32826;SDS011;51059;42.058;27.986;2024-02-04T06:03:50;10.70;;;9.60;;
32826;SDS011;51059;42.058;27.986;2024-02-04T06:06:16;11.47;;;10.20;;
32826;SDS011;51059;42.058;27.986;2024-02-04T06:08:47;11.23;;;9.80;;
32826;SDS011;51059;42.058;27.986;2024-02-04T06:11:15;11.03;;;9.83;;
32826;SDS011;51059;42.058;27.986;2024-02-04T06:13:44;11.27;;;9.73;;
32826;SDS011;51059;42.058;27.986;2024-02-04T06:16:10;15.67;;;10.70;;
32826;SDS011;51059;42.058;27.986;2024-02-04T06:18:39;12.10;;;10.80;;
32826;SDS011;51059;42.058;27.986;2024-02-04T06:21:06;10.67;;;9.53;;
32826;SDS011;51059;42.058;27.986;2024-02-04T06:23:32;10.90;;;9.80;;
32826;SDS011;51059;42.058;27.986;2024-02-04T06:26:00;9.77;;;8.80;;
32826;SDS011;51059;42.058;27.986;2024-02-04T06:28:27;8.57;;;7.67;;
32826;SDS011;51059;42.058;27.986;2024-02-04T06:30:54;9.40;;;8.17;;
32826;SDS011;51059;42.058;27.986;2024-02-04T06:33:20;10.87;;;8.70;;
32826;SDS011;51059;42.058;27.986;2024-02-04T06:35:48;9.80;;;8.80;;
32826;SDS011;51059;42.058;27.986;2024-02-04T06:38:13;10.27;;;8.97;;
32826;SDS011;51059;42.058;27.986;2024-02-04T06:40:39;10.70;;;9.37;;
32826;SDS011;51059;42.058;27.986;2024-02-04T06:43:05;12.27;;;10.60;;
32826;SDS011;51059;42.058;27.986;2024-02-04T06:45:31;13.80;;;11.43;;
32826;SDS011;51059;42.058;27.986;2024-02-04T06:47:57;14.60;;;11.37;;
32826;SDS011;51059;42.058;27.986;2024-02-04T06:50:23;18.47;;;14.60;;
32826;SDS011;51059;42.058;27.986;2024-02-04T06:52:49;12.50;;;11.20;;
32826;SDS011;51059;42.058;27.986;2024-02-04T06:55:15;11.37;;;9.87;;
32826;SDS011;51059;42.058;27.986;2024-02-04T06:57:41;10.00;;;8.70;;
32826;SDS011;51059;42.058;27.986;2024-02-04T07:00:07;9.40;;;8.50;;
32826;SDS011;51059;42.058;27.986;2024-02-04T07:02:34;10.43;;;8.90;;
32826;SDS011;51059;42.058;27.986;2024-02-04T07:05:00;10.23;;;8.40;;
32826;SDS011;51059;42.058;27.986;2024-02-04T07:07:26;10.17;;;8.43;;
32826;SDS011;51059;42.058;27.986;2024-02-04T07:09:52;10.53;;;7.60;;
32826;SDS011;51059;42.058;27.986;2024-02-04T07:12:19;10.00;;;8.83;;
32826;SDS011;51059;42.058;27.986;2024-02-04T07:14:46;9.50;;;8.50;;
32826;SDS011;51059;42.058;27.986;2024-02-04T07:17:12;10.80;;;8.80;;
32826;SDS011;51059;42.058;27.986;2024-02-04T07:19:37;9.70;;;8.47;;
32826;SDS011;51059;42.058;27.986;2024-02-04T07:22:03;10.50;;;9.20;;
32826;SDS011;51059;42.058;27.986;2024-02-04T07:24:29;10.67;;;9.13;;
32826;SDS011;51059;42.058;27.986;2024-02-04T07:26:55;10.40;;;8.07;;
32826;SDS011;51059;42.058;27.986;2024-02-04T07:29:21;9.80;;;7.97;;
32826;SDS011;51059;42.058;27.986;2024-02-04T07:31:47;11.40;;;7.40;;
32826;SDS011;51059;42.058;27.986;2024-02-04T07:34:13;7.50;;;6.70;;
32826;SDS011;51059;42.058;27.986;2024-02-04T07:36:39;9.73;;;7.33;;
32826;SDS011;51059;42.058;27.986;2024-02-04T07:39:05;9.13;;;8.23;;
32826;SDS011;51059;42.058;27.986;2024-02-04T07:41:31;8.67;;;7.70;;
32826;SDS011;51059;42.058;27.986;2024-02-04T07:43:57;8.97;;;8.07;;
32826;SDS011;51059;42.058;27.986;2024-02-04T07:46:24;9.33;;;7.90;;
32826;SDS011;51059;42.058;27.986;2024-02-04T07:48:49;11.17;;;9.20;;
32826;SDS011;51059;42.058;27.986;2024-02-04T07:51:15;9.23;;;8.30;;
32826;SDS011;51059;42.058;27.986;2024-02-04T07:53:41;10.90;;;9.00;;
32826;SDS011;51059;42.058;27.986;2024-02-04T07:56:07;9.20;;;8.00;;
32826;SDS011;51059;42.058;27.986;2024-02-04T07:58:34;10.10;;;8.30;;
32826;SDS011;51059;42.058;27.986;2024-02-04T08:01:00;9.13;;;8.23;;
32826;SDS011;51059;42.058;27.986;2024-02-04T08:03:26;10.80;;;8.27;;
32826;SDS011;51059;42.058;27.986;2024-02-04T08:05:52;8.60;;;7.50;;
32826;SDS011;51059;42.058;27.986;2024-02-04T08:08:18;9.03;;;7.00;;
32826;SDS011;51059;42.058;27.986;2024-02-04T08:10:44;9.60;;;7.43;;
32826;SDS011;51059;42.058;27.986;2024-02-04T08:13:10;7.63;;;6.80;;
32826;SDS011;51059;42.058;27.986;2024-02-04T08:15:36;8.37;;;7.07;;
32826;SDS011;51059;42.058;27.986;2024-02-04T08:18:02;8.20;;;7.00;;
32826;SDS011;51059;42.058;27.986;2024-02-04T08:20:28;8.07;;;6.97;;
32826;SDS011;51059;42.058;27.986;2024-02-04T08:22:54;7.90;;;7.10;;
32826;SDS011;51059;42.058;27.986;2024-02-04T08:25:20;8.30;;;7.50;;
32826;SDS011;51059;42.058;27.986;2024-02-04T08:27:45;9.27;;;7.83;;
32826;SDS011;51059;42.058;27.986;2024-02-04T08:30:12;11.07;;;7.73;;
32826;SDS011;51059;42.058;27.986;2024-02-04T08:32:38;8.90;;;7.50;;
32826;SDS011;51059;42.058;27.986;2024-02-04T08:35:04;8.90;;;7.07;;
32826;SDS011;51059;42.058;27.986;2024-02-04T08:37:32;7.83;;;6.83;;
32826;SDS011;51059;42.058;27.986;2024-02-04T08:39:58;7.47;;;6.73;;
32826;SDS011;51059;42.058;27.986;2024-02-04T08:42:24;8.87;;;7.30;;
32826;SDS011;51059;42.058;27.986;2024-02-04T08:44:50;9.03;;;7.90;;
32826;SDS011;51059;42.058;27.986;2024-02-04T08:47:16;8.47;;;7.50;;
32826;SDS011;51059;42.058;27.986;2024-02-04T08:49:44;7.53;;;6.73;;
32826;SDS011;51059;42.058;27.986;2024-02-04T08:52:10;7.30;;;6.60;;
32826;SDS011;51059;42.058;27.986;2024-02-04T08:54:36;7.17;;;6.47;;
32826;SDS011;51059;42.058;27.986;2024-02-04T08:57:03;7.70;;;6.90;;
32826;SDS011;51059;42.058;27.986;2024-02-04T08:59:29;8.27;;;6.67;;
32826;SDS011;51059;42.058;27.986;2024-02-04T09:01:55;8.13;;;6.70;;
32826;SDS011;51059;42.058;27.986;2024-02-04T09:04:21;8.03;;;6.77;;
32826;SDS011;51059;42.058;27.986;2024-02-04T09:06:47;7.83;;;6.53;;
32826;SDS011;51059;42.058;27.986;2024-02-04T09:09:13;7.10;;;6.03;;
32826;SDS011;51059;42.058;27.986;2024-02-04T09:11:39;8.33;;;6.70;;
32826;SDS011;51059;42.058;27.986;2024-02-04T09:14:05;8.37;;;7.07;;
32826;SDS011;51059;42.058;27.986;2024-02-04T09:16:30;8.00;;;7.17;;
32826;SDS011;51059;42.058;27.986;2024-02-04T09:18:56;8.70;;;6.77;;
32826;SDS011;51059;42.058;27.986;2024-02-04T09:21:22;6.93;;;6.23;;
32826;SDS011;51059;42.058;27.986;2024-02-04T09:23:48;8.83;;;6.70;;
32826;SDS011;51059;42.058;27.986;2024-02-04T09:26:14;7.00;;;6.30;;
32826;SDS011;51059;42.058;27.986;2024-02-04T09:28:39;6.57;;;5.83;;
32826;SDS011;51059;42.058;27.986;2024-02-04T09:31:11;8.77;;;5.90;;
32826;SDS011;51059;42.058;27.986;2024-02-04T09:33:37;8.43;;;5.83;;
32826;SDS011;51059;42.058;27.986;2024-02-04T09:36:04;8.37;;;6.37;;
32826;SDS011;51059;42.058;27.986;2024-02-04T09:38:29;6.57;;;5.97;;
32826;SDS011;51059;42.058;27.986;2024-02-04T09:40:56;7.07;;;6.33;;
32826;SDS011;51059;42.058;27.986;2024-02-04T09:43:21;6.43;;;5.83;;
32826;SDS011;51059;42.058;27.986;2024-02-04T09:45:48;6.60;;;6.00;;
32826;SDS011;51059;42.058;27.986;2024-02-04T09:48:17;6.40;;;5.80;;
32826;SDS011;51059;42.058;27.986;2024-02-04T09:50:46;8.13;;;5.73;;
32826;SDS011;51059;42.058;27.986;2024-02-04T09:53:14;9.80;;;6.37;;
32826;SDS011;51059;42.058;27.986;2024-02-04T09:55:45;8.67;;;6.33;;
32826;SDS011;51059;42.058;27.986;2024-02-04T09:58:13;6.50;;;5.90;;
32826;SDS011;51059;42.058;27.986;2024-02-04T10:00:39;7.10;;;6.37;;
32826;SDS011;51059;42.058;27.986;2024-02-04T10:03:09;8.13;;;6.80;;
32826;SDS011;51059;42.058;27.986;2024-02-04T10:05:36;7.43;;;6.63;;
32826;SDS011;51059;42.058;27.986;2024-02-04T10:08:02;7.70;;;6.90;;
32826;SDS011;51059;42.058;27.986;2024-02-04T10:10:28;7.93;;;6.63;;
32826;SDS011;51059;42.058;27.986;2024-02-04T10:12:55;7.27;;;6.37;;
32826;SDS011;51059;42.058;27.986;2024-02-04T10:15:21;7.30;;;6.40;;
32826;SDS011;51059;42.058;27.986;2024-02-04T10:17:47;9.03;;;5.83;;
32826;SDS011;51059;42.058;27.986;2024-02-04T10:20:13;8.47;;;6.33;;
32826;SDS011;51059;42.058;27.986;2024-02-04T10:22:39;6.57;;;5.63;;
32826;SDS011;51059;42.058;27.986;2024-02-04T10:25:08;7.40;;;6.00;;
32826;SDS011;51059;42.058;27.986;2024-02-04T10:27:37;7.00;;;5.97;;
32826;SDS011;51059;42.058;27.986;2024-02-04T10:30:04;7.37;;;6.27;;
32826;SDS011;51059;42.058;27.986;2024-02-04T10:32:30;11.40;;;6.90;;
32826;SDS011;51059;42.058;27.986;2024-02-04T10:34:57;7.80;;;6.67;;
32826;SDS011;51059;42.058;27.986;2024-02-04T10:37:23;6.17;;;5.57;;
32826;SDS011;51059;42.058;27.986;2024-02-04T10:39:49;7.83;;;5.27;;
32826;SDS011;51059;42.058;27.986;2024-02-04T10:42:16;7.13;;;6.33;;
32826;SDS011;51059;42.058;27.986;2024-02-04T10:44:46;6.67;;;5.30;;
32826;SDS011;51059;42.058;27.986;2024-02-04T10:47:15;6.20;;;5.60;;
32826;SDS011;51059;42.058;27.986;2024-02-04T10:49:51;8.27;;;7.27;;
32826;SDS011;51059;42.058;27.986;2024-02-04T10:52:20;7.67;;;6.97;;
32826;SDS011;51059;42.058;27.986;2024-02-04T10:54:49;8.57;;;7.10;;
32826;SDS011;51059;42.058;27.986;2024-02-04T10:57:17;7.10;;;5.97;;
32826;SDS011;51059;42.058;27.986;2024-02-04T10:59:47;7.77;;;6.80;;
32826;SDS011;51059;42.058;27.986;2024-02-04T11:02:14;7.83;;;7.03;;
32826;SDS011;51059;42.058;27.986;2024-02-04T11:04:42;7.20;;;6.13;;
32826;SDS011;51059;42.058;27.986;2024-02-04T11:07:11;8.33;;;6.63;;
32826;SDS011;51059;42.058;27.986;2024-02-04T11:09:39;7.67;;;6.87;;
32826;SDS011;51059;42.058;27.986;2024-02-04T11:12:06;9.57;;;7.60;;
32826;SDS011;51059;42.058;27.986;2024-02-04T11:14:36;9.60;;;7.40;;
32826;SDS011;51059;42.058;27.986;2024-02-04T11:19:40;6.77;;;6.07;;
32826;SDS011;51059;42.058;27.986;2024-02-04T11:28:11;6.50;;;5.90;;
32826;SDS011;51059;42.058;27.986;2024-02-04T11:30:37;7.33;;;6.37;;
32826;SDS011;51059;42.058;27.986;2024-02-04T11:33:03;6.47;;;5.80;;
32826;SDS011;51059;42.058;27.986;2024-02-04T11:35:30;7.47;;;6.10;;
32826;SDS011;51059;42.058;27.986;2024-02-04T11:37:57;8.00;;;5.97;;
32826;SDS011;51059;42.058;27.986;2024-02-04T11:40:23;7.87;;;6.17;;
32826;SDS011;51059;42.058;27.986;2024-02-04T11:43:11;7.80;;;6.00;;
32826;SDS011;51059;42.058;27.986;2024-02-04T11:45:39;6.83;;;6.13;;
32826;SDS011;51059;42.058;27.986;2024-02-04T11:48:13;6.67;;;6.00;;
32826;SDS011;51059;42.058;27.986;2024-02-04T11:50:39;7.40;;;5.97;;
32826;SDS011;51059;42.058;27.986;2024-02-04T11:53:12;6.57;;;5.90;;
32826;SDS011;51059;42.058;27.986;2024-02-04T11:55:39;6.73;;;6.03;;
32826;SDS011;51059;42.058;27.986;2024-02-04T11:58:06;6.97;;;6.13;;
32826;SDS011;51059;42.058;27.986;2024-02-04T12:00:37;6.80;;;6.10;;
32826;SDS011;51059;42.058;27.986;2024-02-04T12:03:09;8.47;;;6.10;;
32826;SDS011;51059;42.058;27.986;2024-02-04T12:05:35;6.30;;;5.53;;
32826;SDS011;51059;42.058;27.986;2024-02-04T12:08:02;8.73;;;6.77;;
32826;SDS011;51059;42.058;27.986;2024-02-04T12:10:33;7.00;;;6.13;;
32826;SDS011;51059;42.058;27.986;2024-02-04T12:13:04;8.57;;;6.90;;
32826;SDS011;51059;42.058;27.986;2024-02-04T12:15:34;8.87;;;7.17;;
32826;SDS011;51059;42.058;27.986;2024-02-04T12:18:11;7.20;;;6.50;;
32826;SDS011;51059;42.058;27.986;2024-02-04T12:20:39;9.37;;;6.53;;
32826;SDS011;51059;42.058;27.986;2024-02-04T12:23:05;8.23;;;6.30;;
32826;SDS011;51059;42.058;27.986;2024-02-04T12:25:32;6.20;;;5.60;;
32826;SDS011;51059;42.058;27.986;2024-02-04T12:27:58;7.13;;;5.77;;
32826;SDS011;51059;42.058;27.986;2024-02-04T12:30:26;6.90;;;5.70;;
32826;SDS011;51059;42.058;27.986;2024-02-04T12:32:58;6.00;;;5.40;;
32826;SDS011;51059;42.058;27.986;2024-02-04T12:35:26;5.90;;;5.30;;
32826;SDS011;51059;42.058;27.986;2024-02-04T12:37:56;7.37;;;5.90;;
32826;SDS011;51059;42.058;27.986;2024-02-04T12:40:27;7.10;;;5.77;;
32826;SDS011;51059;42.058;27.986;2024-02-04T12:42:58;7.03;;;6.03;;
32826;SDS011;51059;42.058;27.986;2024-02-04T12:45:25;7.07;;;6.37;;
32826;SDS011;51059;42.058;27.986;2024-02-04T12:47:52;7.53;;;6.10;;
32826;SDS011;51059;42.058;27.986;2024-02-04T12:50:20;5.80;;;5.20;;
32826;SDS011;51059;42.058;27.986;2024-02-04T12:53:02;5.57;;;5.03;;
32826;SDS011;51059;42.058;27.986;2024-02-04T12:55:33;6.30;;;4.67;;
32826;SDS011;51059;42.058;27.986;2024-02-04T12:58:04;5.93;;;4.13;;
32826;SDS011;51059;42.058;27.986;2024-02-04T13:00:35;4.97;;;4.50;;
32826;SDS011;51059;42.058;27.986;2024-02-04T13:03:02;4.80;;;4.30;;
32826;SDS011;51059;42.058;27.986;2024-02-04T13:05:29;4.00;;;3.67;;
32826;SDS011;51059;42.058;27.986;2024-02-04T13:07:57;4.43;;;4.03;;
32826;SDS011;51059;42.058;27.986;2024-02-04T13:10:27;4.40;;;4.00;;
32826;SDS011;51059;42.058;27.986;2024-02-04T13:13:08;4.40;;;4.00;;
32826;SDS011;51059;42.058;27.986;2024-02-04T13:15:38;4.57;;;4.00;;
32826;SDS011;51059;42.058;27.986;2024-02-04T13:18:05;3.40;;;3.10;;
32826;SDS011;51059;42.058;27.986;2024-02-04T13:20:33;3.93;;;3.53;;
32826;SDS011;51059;42.058;27.986;2024-02-04T13:22:59;3.80;;;2.90;;
32826;SDS011;51059;42.058;27.986;2024-02-04T13:25:31;3.57;;;2.93;;
32826;SDS011;51059;42.058;27.986;2024-02-04T13:27:56;5.77;;;3.60;;
32826;SDS011;51059;42.058;27.986;2024-02-04T13:30:22;3.60;;;3.30;;
32826;SDS011;51059;42.058;27.986;2024-02-04T13:32:49;3.80;;;3.17;;
32826;SDS011;51059;42.058;27.986;2024-02-04T13:35:15;3.60;;;3.30;;
32826;SDS011;51059;42.058;27.986;2024-02-04T13:37:42;4.00;;;3.43;;
32826;SDS011;51059;42.058;27.986;2024-02-04T13:40:14;3.87;;;3.40;;
32826;SDS011;51059;42.058;27.986;2024-02-04T13:42:42;4.10;;;3.70;;
32826;SDS011;51059;42.058;27.986;2024-02-04T13:45:08;4.60;;;4.17;;
32826;SDS011;51059;42.058;27.986;2024-02-04T13:47:35;4.10;;;3.70;;
32826;SDS011;51059;42.058;27.986;2024-02-04T13:50:02;4.00;;;3.60;;
32826;SDS011;51059;42.058;27.986;2024-02-04T13:52:29;4.10;;;3.70;;
32826;SDS011;51059;42.058;27.986;2024-02-04T13:54:55;3.97;;;3.67;;
32826;SDS011;51059;42.058;27.986;2024-02-04T13:57:20;5.10;;;4.10;;
32826;SDS011;51059;42.058;27.986;2024-02-04T13:59:46;5.83;;;4.97;;
32826;SDS011;51059;42.058;27.986;2024-02-04T14:02:12;6.20;;;5.20;;
32826;SDS011;51059;42.058;27.986;2024-02-04T14:04:38;5.83;;;5.23;;
32826;SDS011;51059;42.058;27.986;2024-02-04T14:07:04;5.90;;;5.30;;
32826;SDS011;51059;42.058;27.986;2024-02-04T14:09:30;6.07;;;5.43;;
32826;SDS011;51059;42.058;27.986;2024-02-04T14:11:56;6.27;;;5.67;;
32826;SDS011;51059;42.058;27.986;2024-02-04T14:14:22;9.87;;;6.10;;
32826;SDS011;51059;42.058;27.986;2024-02-04T14:16:49;7.83;;;5.87;;
32826;SDS011;51059;42.058;27.986;2024-02-04T14:19:15;6.63;;;5.33;;
32826;SDS011;51059;42.058;27.986;2024-02-04T14:21:41;6.53;;;5.20;;
32826;SDS011;51059;42.058;27.986;2024-02-04T14:24:07;5.93;;;4.60;;
32826;SDS011;51059;42.058;27.986;2024-02-04T14:26:33;6.30;;;4.53;;
32826;SDS011;51059;42.058;27.986;2024-02-04T14:28:59;5.90;;;4.43;;
32826;SDS011;51059;42.058;27.986;2024-02-04T14:31:25;4.70;;;4.20;;
32826;SDS011;51059;42.058;27.986;2024-02-04T14:33:51;7.73;;;4.50;;
32826;SDS011;51059;42.058;27.986;2024-02-04T14:36:17;5.30;;;4.53;;
32826;SDS011;51059;42.058;27.986;2024-02-04T14:38:42;6.33;;;5.00;;
32826;SDS011;51059;42.058;27.986;2024-02-04T14:41:08;5.27;;;4.37;;